sensor_id;sensor_type;location;lat;lon;timestamp;pressure;altitude;pressure_sealevel;temperature;humidity
32789;BME280;19141;48.980;8.410;2023-07-29T04:22:33;99609.19;;;16.60;100.00
32789;BME280;19141;48.980;8.410;2023-07-29T04:24:59;99612.25;;;16.63;100.00
32789;BME280;19141;48.980;8.410;2023-07-29T04:27:24;99614.88;;;16.70;100.00
32789;BME280;19141;48.980;8.410;2023-07-29T04:29:50;99612.28;;;16.75;100.00
32789;BME280;19141;48.980;8.410;2023-07-29T04:32:15;99591.41;;;16.77;100.00
32789;BME280;19141;48.980;8.410;2023-07-29T04:34:41;99587.19;;;16.81;100.00
32789;BME280;19141;48.980;8.410;2023-07-29T04:37:07;99590.25;;;16.85;100.00
32789;BME280;19141;48.980;8.410;2023-07-29T04:39:32;99581.13;;;16.86;100.00
32789;BME280;19141;48.980;8.410;2023-07-29T04:41:58;99588.81;;;16.82;100.00
32789;BME280;19141;48.980;8.410;2023-07-29T04:44:24;99589.88;;;16.81;100.00
32789;BME280;19141;48.980;8.410;2023-07-29T04:46:49;99592.56;;;16.81;100.00
32789;BME280;19141;48.980;8.410;2023-07-29T04:49:15;99596.06;;;16.81;100.00
32789;BME280;19141;48.980;8.410;2023-07-29T04:51:40;99600.19;;;16.84;100.00
32789;BME280;19141;48.980;8.410;2023-07-29T04:54:05;99601.22;;;16.83;100.00
32789;BME280;19141;48.980;8.410;2023-07-29T04:56:31;99597.00;;;16.87;100.00
32789;BME280;19141;48.980;8.410;2023-07-29T04:58:56;99591.19;;;16.90;100.00
32789;BME280;19141;48.980;8.410;2023-07-29T05:01:21;99584.06;;;16.96;100.00
32789;BME280;19141;48.980;8.410;2023-07-29T05:03:47;99578.91;;;16.94;100.00
32789;BME280;19141;48.980;8.410;2023-07-29T05:06:13;99579.50;;;16.96;100.00
32789;BME280;19141;48.980;8.410;2023-07-29T05:08:38;99577.41;;;16.98;100.00
32789;BME280;19141;48.980;8.410;2023-07-29T05:11:04;99589.81;;;16.99;100.00
32789;BME280;19141;48.980;8.410;2023-07-29T05:13:29;99588.53;;;17.02;100.00
32789;BME280;19141;48.980;8.410;2023-07-29T05:15:55;99585.38;;;17.05;100.00
32789;BME280;19141;48.980;8.410;2023-07-29T05:18:21;99589.47;;;17.07;100.00
32789;BME280;19141;48.980;8.410;2023-07-29T05:20:47;99587.13;;;17.11;100.00
32789;BME280;19141;48.980;8.410;2023-07-29T05:23:13;99592.84;;;17.15;100.00
32789;BME280;19141;48.980;8.410;2023-07-29T05:25:38;99594.88;;;17.19;100.00
32789;BME280;19141;48.980;8.410;2023-07-29T05:28:04;99602.25;;;17.24;100.00
32789;BME280;19141;48.980;8.410;2023-07-29T05:30:30;99597.22;;;17.27;100.00
32789;BME280;19141;48.980;8.410;2023-07-29T05:32:59;99579.56;;;17.31;100.00
32789;BME280;19141;48.980;8.410;2023-07-29T05:35:25;99576.16;;;17.36;100.00
32789;BME280;19141;48.980;8.410;2023-07-29T05:37:51;99587.63;;;17.43;100.00
32789;BME280;19141;48.980;8.410;2023-07-29T05:40:16;99588.56;;;17.49;100.00
32789;BME280;19141;48.980;8.410;2023-07-29T05:42:43;99590.09;;;17.56;100.00
32789;BME280;19141;48.980;8.410;2023-07-29T05:45:10;99581.31;;;17.61;100.00
32789;BME280;19141;48.980;8.410;2023-07-29T05:47:36;99588.09;;;17.63;100.00
32789;BME280;19141;48.980;8.410;2023-07-29T05:50:02;99597.47;;;17.73;100.00
32789;BME280;19141;48.980;8.410;2023-07-29T05:52:30;99600.06;;;17.79;100.00
32789;BME280;19141;48.980;8.410;2023-07-29T05:54:56;99604.84;;;17.89;100.00
32789;BME280;19141;48.980;8.410;2023-07-29T05:57:21;99608.50;;;17.95;100.00
32789;BME280;19141;48.980;8.410;2023-07-29T05:59:46;99610.44;;;17.99;100.00
32789;BME280;19141;48.980;8.410;2023-07-29T06:02:12;99612.44;;;18.04;100.00
32789;BME280;19141;48.980;8.410;2023-07-29T06:04:37;99613.63;;;18.08;100.00
32789;BME280;19141;48.980;8.410;2023-07-29T06:07:03;99611.25;;;18.11;100.00
32789;BME280;19141;48.980;8.410;2023-07-29T06:09:28;99611.84;;;18.13;100.00
32789;BME280;19141;48.980;8.410;2023-07-29T06:11:54;99615.94;;;18.16;100.00
32789;BME280;19141;48.980;8.410;2023-07-29T06:14:19;99616.75;;;18.16;100.00
32789;BME280;19141;48.980;8.410;2023-07-29T06:16:46;99624.94;;;18.22;100.00
32789;BME280;19141;48.980;8.410;2023-07-29T06:19:11;99635.25;;;18.25;100.00
32789;BME280;19141;48.980;8.410;2023-07-29T06:21:36;99649.91;;;18.29;100.00
32789;BME280;19141;48.980;8.410;2023-07-29T06:24:02;99648.84;;;18.30;100.00
32789;BME280;19141;48.980;8.410;2023-07-29T06:26:28;99651.63;;;18.35;100.00
32789;BME280;19141;48.980;8.410;2023-07-29T06:28:53;99650.34;;;18.37;100.00
32789;BME280;19141;48.980;8.410;2023-07-29T06:31:19;99640.22;;;18.44;100.00
32789;BME280;19141;48.980;8.410;2023-07-29T06:33:44;99639.28;;;18.51;100.00
32789;BME280;19141;48.980;8.410;2023-07-29T06:36:10;99644.63;;;18.62;100.00
32789;BME280;19141;48.980;8.410;2023-07-29T06:38:35;99647.47;;;18.67;100.00
32789;BME280;19141;48.980;8.410;2023-07-29T06:41:00;99657.53;;;18.72;100.00
32789;BME280;19141;48.980;8.410;2023-07-29T06:43:26;99663.25;;;18.76;100.00
32789;BME280;19141;48.980;8.410;2023-07-29T06:45:51;99668.19;;;18.79;100.00
32789;BME280;19141;48.980;8.410;2023-07-29T06:48:17;99669.00;;;18.79;100.00
32789;BME280;19141;48.980;8.410;2023-07-29T06:50:44;99662.19;;;18.77;100.00
32789;BME280;19141;48.980;8.410;2023-07-29T06:53:09;99660.16;;;18.84;100.00
32789;BME280;19141;48.980;8.410;2023-07-29T06:55:34;99660.53;;;18.87;100.00
32789;BME280;19141;48.980;8.410;2023-07-29T06:58:00;99661.09;;;18.89;100.00
32789;BME280;19141;48.980;8.410;2023-07-29T07:00:25;99658.50;;;18.94;100.00
32789;BME280;19141;48.980;8.410;2023-07-29T07:02:51;99650.75;;;18.98;100.00
32789;BME280;19141;48.980;8.410;2023-07-29T07:05:16;99665.88;;;18.99;100.00
32789;BME280;19141;48.980;8.410;2023-07-29T07:07:41;99654.81;;;19.01;100.00
32789;BME280;19141;48.980;8.410;2023-07-29T07:10:07;99642.72;;;19.03;100.00
32789;BME280;19141;48.980;8.410;2023-07-29T07:12:33;99658.75;;;19.10;100.00
32789;BME280;19141;48.980;8.410;2023-07-29T07:14:58;99652.38;;;19.16;100.00
32789;BME280;19141;48.980;8.410;2023-07-29T07:17:23;99647.34;;;19.19;100.00
32789;BME280;19141;48.980;8.410;2023-07-29T07:19:49;99654.03;;;19.34;100.00
32789;BME280;19141;48.980;8.410;2023-07-29T07:22:16;99655.84;;;19.45;100.00
32789;BME280;19141;48.980;8.410;2023-07-29T07:24:41;99648.41;;;19.52;100.00
32789;BME280;19141;48.980;8.410;2023-07-29T07:27:06;99649.44;;;19.63;100.00
32789;BME280;19141;48.980;8.410;2023-07-29T07:29:32;99653.63;;;19.75;100.00
32789;BME280;19141;48.980;8.410;2023-07-29T07:31:57;99654.69;;;19.91;100.00
32789;BME280;19141;48.980;8.410;2023-07-29T07:34:22;99649.75;;;20.05;100.00
32789;BME280;19141;48.980;8.410;2023-07-29T07:36:48;99655.88;;;20.17;100.00
32789;BME280;19141;48.980;8.410;2023-07-29T07:39:14;99654.69;;;20.30;100.00
32789;BME280;19141;48.980;8.410;2023-07-29T07:41:41;99650.72;;;20.38;100.00
32789;BME280;19141;48.980;8.410;2023-07-29T07:44:07;99645.28;;;20.54;100.00
32789;BME280;19141;48.980;8.410;2023-07-29T07:46:33;99647.63;;;20.73;100.00
32789;BME280;19141;48.980;8.410;2023-07-29T07:48:58;99652.69;;;20.91;100.00
32789;BME280;19141;48.980;8.410;2023-07-29T07:51:24;99657.22;;;21.07;100.00
32789;BME280;19141;48.980;8.410;2023-07-29T07:53:49;99660.56;;;21.20;100.00
32789;BME280;19141;48.980;8.410;2023-07-29T07:56:15;99659.19;;;21.17;100.00
32789;BME280;19141;48.980;8.410;2023-07-29T07:58:40;99668.00;;;21.29;100.00
32789;BME280;19141;48.980;8.410;2023-07-29T08:01:07;99664.78;;;21.32;100.00
32789;BME280;19141;48.980;8.410;2023-07-29T08:03:33;99658.31;;;21.38;100.00
32789;BME280;19141;48.980;8.410;2023-07-29T08:05:59;99662.69;;;21.39;100.00
32789;BME280;19141;48.980;8.410;2023-07-29T08:08:26;99668.63;;;21.42;100.00
32789;BME280;19141;48.980;8.410;2023-07-29T08:10:53;99669.94;;;21.34;100.00
32789;BME280;19141;48.980;8.410;2023-07-29T08:13:19;99676.97;;;21.35;100.00
32789;BME280;19141;48.980;8.410;2023-07-29T08:15:47;99674.06;;;21.42;100.00
32789;BME280;19141;48.980;8.410;2023-07-29T08:18:12;99682.84;;;21.54;100.00
32789;BME280;19141;48.980;8.410;2023-07-29T08:20:37;99673.13;;;21.63;100.00
32789;BME280;19141;48.980;8.410;2023-07-29T08:23:03;99676.22;;;21.77;100.00
32789;BME280;19141;48.980;8.410;2023-07-29T08:25:29;99681.34;;;21.73;100.00
32789;BME280;19141;48.980;8.410;2023-07-29T08:27:54;99684.28;;;21.66;100.00
32789;BME280;19141;48.980;8.410;2023-07-29T08:30:20;99683.69;;;21.59;100.00
32789;BME280;19141;48.980;8.410;2023-07-29T08:32:45;99692.41;;;21.34;100.00
32789;BME280;19141;48.980;8.410;2023-07-29T08:35:10;99685.66;;;21.10;100.00
32789;BME280;19141;48.980;8.410;2023-07-29T08:37:36;99682.00;;;20.99;100.00
32789;BME280;19141;48.980;8.410;2023-07-29T08:40:01;99677.59;;;20.88;100.00
32789;BME280;19141;48.980;8.410;2023-07-29T08:42:31;99700.44;;;20.75;100.00
32789;BME280;19141;48.980;8.410;2023-07-29T08:45:01;99712.75;;;20.66;100.00
32789;BME280;19141;48.980;8.410;2023-07-29T08:47:31;99703.81;;;20.44;100.00
32789;BME280;19141;48.980;8.410;2023-07-29T08:49:57;99712.47;;;20.24;100.00
32789;BME280;19141;48.980;8.410;2023-07-29T08:52:24;99707.84;;;20.02;100.00
32789;BME280;19141;48.980;8.410;2023-07-29T08:54:51;99702.44;;;19.86;100.00
32789;BME280;19141;48.980;8.410;2023-07-29T08:57:18;99707.19;;;19.78;100.00
32789;BME280;19141;48.980;8.410;2023-07-29T08:59:45;99708.69;;;19.69;100.00
32789;BME280;19141;48.980;8.410;2023-07-29T09:02:11;99710.25;;;19.65;100.00
32789;BME280;19141;48.980;8.410;2023-07-29T09:04:36;99707.78;;;19.64;100.00
32789;BME280;19141;48.980;8.410;2023-07-29T09:07:01;99706.16;;;19.63;100.00
32789;BME280;19141;48.980;8.410;2023-07-29T09:09:27;99704.28;;;19.63;100.00
32789;BME280;19141;48.980;8.410;2023-07-29T09:11:53;99701.88;;;19.67;100.00
32789;BME280;19141;48.980;8.410;2023-07-29T09:14:19;99703.94;;;19.76;100.00
32789;BME280;19141;48.980;8.410;2023-07-29T09:16:45;99700.00;;;19.84;100.00
32789;BME280;19141;48.980;8.410;2023-07-29T09:19:11;99693.44;;;19.97;100.00
32789;BME280;19141;48.980;8.410;2023-07-29T09:21:39;99682.16;;;20.22;100.00
32789;BME280;19141;48.980;8.410;2023-07-29T09:24:05;99682.63;;;20.57;100.00
32789;BME280;19141;48.980;8.410;2023-07-29T09:26:32;99682.22;;;20.93;100.00
32789;BME280;19141;48.980;8.410;2023-07-29T09:28:59;99691.88;;;21.32;100.00
32789;BME280;19141;48.980;8.410;2023-07-29T09:31:26;99691.50;;;21.56;100.00
32789;BME280;19141;48.980;8.410;2023-07-29T09:33:58;99700.28;;;21.68;100.00
32789;BME280;19141;48.980;8.410;2023-07-29T09:36:25;99705.34;;;21.97;100.00
32789;BME280;19141;48.980;8.410;2023-07-29T09:38:55;99706.91;;;22.19;100.00
32789;BME280;19141;48.980;8.410;2023-07-29T09:41:25;99690.31;;;22.16;100.00
32789;BME280;19141;48.980;8.410;2023-07-29T09:44:01;99692.56;;;22.24;100.00
32789;BME280;19141;48.980;8.410;2023-07-29T09:46:35;99695.84;;;22.36;100.00
32789;BME280;19141;48.980;8.410;2023-07-29T09:49:02;99688.00;;;22.40;100.00
32789;BME280;19141;48.980;8.410;2023-07-29T09:51:28;99696.06;;;22.82;100.00
32789;BME280;19141;48.980;8.410;2023-07-29T09:53:53;99681.16;;;22.95;100.00
32789;BME280;19141;48.980;8.410;2023-07-29T09:56:26;99692.91;;;23.26;100.00
32789;BME280;19141;48.980;8.410;2023-07-29T09:58:57;99705.69;;;23.25;100.00
32789;BME280;19141;48.980;8.410;2023-07-29T10:01:23;99695.09;;;23.24;100.00
32789;BME280;19141;48.980;8.410;2023-07-29T10:03:49;99701.59;;;23.18;100.00
32789;BME280;19141;48.980;8.410;2023-07-29T10:06:15;99714.88;;;23.04;100.00
32789;BME280;19141;48.980;8.410;2023-07-29T10:08:42;99714.84;;;22.94;100.00
32789;BME280;19141;48.980;8.410;2023-07-29T10:11:09;99709.06;;;22.80;100.00
32789;BME280;19141;48.980;8.410;2023-07-29T10:13:35;99713.06;;;22.62;100.00
32789;BME280;19141;48.980;8.410;2023-07-29T10:16:02;99709.53;;;22.57;100.00
32789;BME280;19141;48.980;8.410;2023-07-29T10:18:29;99715.72;;;22.47;100.00
32789;BME280;19141;48.980;8.410;2023-07-29T10:20:57;99723.03;;;22.41;100.00
32789;BME280;19141;48.980;8.410;2023-07-29T10:23:24;99726.00;;;22.40;100.00
32789;BME280;19141;48.980;8.410;2023-07-29T10:26:02;99719.78;;;22.44;100.00
32789;BME280;19141;48.980;8.410;2023-07-29T10:28:30;99724.41;;;22.44;100.00
32789;BME280;19141;48.980;8.410;2023-07-29T10:30:56;99726.81;;;22.40;100.00
32789;BME280;19141;48.980;8.410;2023-07-29T10:33:22;99717.13;;;22.50;100.00
32789;BME280;19141;48.980;8.410;2023-07-29T10:35:48;99721.25;;;22.72;100.00
32789;BME280;19141;48.980;8.410;2023-07-29T10:38:15;99717.19;;;22.75;100.00
32789;BME280;19141;48.980;8.410;2023-07-29T10:40:46;99711.31;;;22.93;97.81
32789;BME280;19141;48.980;8.410;2023-07-29T10:43:12;99716.03;;;23.49;97.13
32789;BME280;19141;48.980;8.410;2023-07-29T10:45:43;99713.84;;;24.12;95.06
32789;BME280;19141;48.980;8.410;2023-07-29T10:48:12;99699.69;;;24.90;89.91
32789;BME280;19141;48.980;8.410;2023-07-29T10:50:38;99701.91;;;25.37;87.16
32789;BME280;19141;48.980;8.410;2023-07-29T10:53:04;99692.81;;;25.81;83.61
32789;BME280;19141;48.980;8.410;2023-07-29T10:55:36;99690.63;;;26.07;78.45
32789;BME280;19141;48.980;8.410;2023-07-29T11:00:30;99691.44;;;26.37;75.04
32789;BME280;19141;48.980;8.410;2023-07-29T11:03:00;99691.91;;;26.44;76.52
32789;BME280;19141;48.980;8.410;2023-07-29T11:08:17;99686.41;;;26.49;77.55
32789;BME280;19141;48.980;8.410;2023-07-29T11:10:43;99687.06;;;26.12;78.11
32789;BME280;19141;48.980;8.410;2023-07-29T11:13:12;99680.53;;;26.61;77.64
32789;BME280;19141;48.980;8.410;2023-07-29T11:15:38;99681.19;;;26.90;70.86
32789;BME280;19141;48.980;8.410;2023-07-29T11:18:05;99677.28;;;26.77;70.82
32789;BME280;19141;48.980;8.410;2023-07-29T11:20:32;99685.50;;;27.34;70.51
32789;BME280;19141;48.980;8.410;2023-07-29T11:23:02;99691.72;;;27.40;64.05
32789;BME280;19141;48.980;8.410;2023-07-29T11:25:29;99693.38;;;27.54;65.17
32789;BME280;19141;48.980;8.410;2023-07-29T11:27:55;99693.91;;;27.00;61.33
32789;BME280;19141;48.980;8.410;2023-07-29T11:30:21;99688.88;;;26.69;65.91
32789;BME280;19141;48.980;8.410;2023-07-29T11:32:47;99677.88;;;26.27;64.71
32789;BME280;19141;48.980;8.410;2023-07-29T11:35:17;99679.84;;;26.21;63.67
32789;BME280;19141;48.980;8.410;2023-07-29T11:37:48;99675.03;;;26.13;61.61
32789;BME280;19141;48.980;8.410;2023-07-29T11:40:18;99665.81;;;26.57;59.83
32789;BME280;19141;48.980;8.410;2023-07-29T11:42:45;99668.16;;;26.87;59.74
32789;BME280;19141;48.980;8.410;2023-07-29T11:45:12;99657.50;;;26.86;59.80
32789;BME280;19141;48.980;8.410;2023-07-29T11:47:38;99671.38;;;26.46;59.84
32789;BME280;19141;48.980;8.410;2023-07-29T11:50:05;99660.91;;;26.54;61.06
32789;BME280;19141;48.980;8.410;2023-07-29T11:52:33;99658.84;;;26.21;61.08
32789;BME280;19141;48.980;8.410;2023-07-29T11:54:59;99667.91;;;26.17;58.80
32789;BME280;19141;48.980;8.410;2023-07-29T11:57:25;99665.81;;;26.57;59.78
32789;BME280;19141;48.980;8.410;2023-07-29T11:59:50;99659.28;;;26.95;55.07
32789;BME280;19141;48.980;8.410;2023-07-29T12:02:17;99647.91;;;27.58;55.37
32789;BME280;19141;48.980;8.410;2023-07-29T12:04:46;99651.22;;;27.88;52.83
32789;BME280;19141;48.980;8.410;2023-07-29T12:07:13;99643.63;;;27.85;51.29
32789;BME280;19141;48.980;8.410;2023-07-29T12:09:40;99648.09;;;28.22;52.86
32789;BME280;19141;48.980;8.410;2023-07-29T12:12:06;99639.09;;;28.63;51.90
32789;BME280;19141;48.980;8.410;2023-07-29T12:14:34;99631.13;;;29.11;49.25
32789;BME280;19141;48.980;8.410;2023-07-29T12:17:04;99635.19;;;29.36;48.47
32789;BME280;19141;48.980;8.410;2023-07-29T12:19:36;99631.19;;;29.42;44.96
32789;BME280;19141;48.980;8.410;2023-07-29T12:22:03;99625.13;;;29.77;45.09
32789;BME280;19141;48.980;8.410;2023-07-29T12:24:32;99623.34;;;29.50;43.56
32789;BME280;19141;48.980;8.410;2023-07-29T12:26:59;99650.00;;;29.13;43.84
32789;BME280;19141;48.980;8.410;2023-07-29T12:29:24;99637.47;;;29.20;44.29
32789;BME280;19141;48.980;8.410;2023-07-29T12:32:00;99643.34;;;29.50;44.69
32789;BME280;19141;48.980;8.410;2023-07-29T12:34:27;99644.66;;;29.75;46.14
32789;BME280;19141;48.980;8.410;2023-07-29T12:36:57;99644.88;;;29.87;43.45
32789;BME280;19141;48.980;8.410;2023-07-29T12:39:24;99636.41;;;30.63;43.72
32789;BME280;19141;48.980;8.410;2023-07-29T12:41:51;99641.91;;;30.63;42.50
32789;BME280;19141;48.980;8.410;2023-07-29T12:44:17;99643.84;;;30.63;42.25
32789;BME280;19141;48.980;8.410;2023-07-29T12:46:42;99648.47;;;30.27;43.73
32789;BME280;19141;48.980;8.410;2023-07-29T12:49:08;99631.63;;;29.58;44.36
32789;BME280;19141;48.980;8.410;2023-07-29T12:51:34;99636.34;;;29.66;45.89
32789;BME280;19141;48.980;8.410;2023-07-29T12:54:00;99641.09;;;29.75;45.30
32789;BME280;19141;48.980;8.410;2023-07-29T12:56:26;99646.66;;;29.38;45.57
32789;BME280;19141;48.980;8.410;2023-07-29T12:58:52;99644.72;;;28.80;45.80
32789;BME280;19141;48.980;8.410;2023-07-29T13:01:17;99636.03;;;29.01;46.03
32789;BME280;19141;48.980;8.410;2023-07-29T13:03:47;99634.97;;;28.74;45.00
32789;BME280;19141;48.980;8.410;2023-07-29T13:06:13;99630.91;;;28.85;44.66
32789;BME280;19141;48.980;8.410;2023-07-29T13:08:38;99632.00;;;29.20;44.71
32789;BME280;19141;48.980;8.410;2023-07-29T13:11:04;99639.06;;;29.58;44.24
32789;BME280;19141;48.980;8.410;2023-07-29T13:13:30;99621.72;;;30.11;43.89
32789;BME280;19141;48.980;8.410;2023-07-29T13:15:55;99614.00;;;29.82;42.38
32789;BME280;19141;48.980;8.410;2023-07-29T13:18:21;99614.13;;;29.68;42.60
32789;BME280;19141;48.980;8.410;2023-07-29T13:20:46;99611.75;;;29.84;44.00
32789;BME280;19141;48.980;8.410;2023-07-29T13:23:12;99608.97;;;29.75;43.96
32789;BME280;19141;48.980;8.410;2023-07-29T13:25:37;99613.94;;;29.73;45.34
32789;BME280;19141;48.980;8.410;2023-07-29T13:28:03;99604.91;;;29.19;44.65
32789;BME280;19141;48.980;8.410;2023-07-29T13:30:28;99614.06;;;29.14;45.51
32789;BME280;19141;48.980;8.410;2023-07-29T13:32:54;99613.13;;;29.19;45.85
32789;BME280;19141;48.980;8.410;2023-07-29T13:35:20;99604.66;;;29.07;44.84
32789;BME280;19141;48.980;8.410;2023-07-29T13:37:45;99618.75;;;28.78;45.31
32789;BME280;19141;48.980;8.410;2023-07-29T13:40:10;99615.41;;;28.67;46.11
32789;BME280;19141;48.980;8.410;2023-07-29T13:42:36;99622.34;;;28.23;46.15
32789;BME280;19141;48.980;8.410;2023-07-29T13:45:02;99618.41;;;28.02;46.37
32789;BME280;19141;48.980;8.410;2023-07-29T13:47:27;99623.88;;;27.88;48.36
32789;BME280;19141;48.980;8.410;2023-07-29T13:49:53;99621.94;;;27.89;47.81
32789;BME280;19141;48.980;8.410;2023-07-29T13:52:18;99624.88;;;27.78;48.42
32789;BME280;19141;48.980;8.410;2023-07-29T13:54:44;99623.34;;;27.40;48.92
32789;BME280;19141;48.980;8.410;2023-07-29T13:57:09;99619.88;;;27.34;47.91
32789;BME280;19141;48.980;8.410;2023-07-29T13:59:36;99622.16;;;27.46;49.11
32789;BME280;19141;48.980;8.410;2023-07-29T14:02:04;99628.03;;;27.53;49.35
32789;BME280;19141;48.980;8.410;2023-07-29T14:04:30;99624.47;;;27.39;49.53
32789;BME280;19141;48.980;8.410;2023-07-29T14:06:56;99626.69;;;27.18;48.93
32789;BME280;19141;48.980;8.410;2023-07-29T14:09:21;99632.78;;;27.15;49.66
32789;BME280;19141;48.980;8.410;2023-07-29T14:11:46;99623.22;;;27.12;49.89
32789;BME280;19141;48.980;8.410;2023-07-29T14:14:12;99621.47;;;27.21;50.28
32789;BME280;19141;48.980;8.410;2023-07-29T14:16:37;99612.53;;;27.16;50.55
32789;BME280;19141;48.980;8.410;2023-07-29T14:19:03;99625.13;;;27.30;51.36
32789;BME280;19141;48.980;8.410;2023-07-29T14:21:28;99611.09;;;27.18;49.02
32789;BME280;19141;48.980;8.410;2023-07-29T14:23:54;99620.84;;;27.24;49.94
32789;BME280;19141;48.980;8.410;2023-07-29T14:26:19;99624.78;;;27.18;49.64
32789;BME280;19141;48.980;8.410;2023-07-29T14:28:44;99629.66;;;27.02;48.91
32789;BME280;19141;48.980;8.410;2023-07-29T14:31:10;99631.56;;;27.02;49.16
32789;BME280;19141;48.980;8.410;2023-07-29T14:33:35;99634.81;;;26.85;48.42
32789;BME280;19141;48.980;8.410;2023-07-29T14:36:01;99631.59;;;26.83;48.80
32789;BME280;19141;48.980;8.410;2023-07-29T14:38:28;99630.31;;;26.75;48.60
32789;BME280;19141;48.980;8.410;2023-07-29T14:40:54;99628.63;;;26.79;51.03
32789;BME280;19141;48.980;8.410;2023-07-29T14:43:22;99623.88;;;26.66;50.71
32789;BME280;19141;48.980;8.410;2023-07-29T14:45:48;99617.97;;;26.59;51.59
32789;BME280;19141;48.980;8.410;2023-07-29T14:48:13;99620.19;;;26.57;52.67
32789;BME280;19141;48.980;8.410;2023-07-29T14:50:38;99621.06;;;26.52;51.44
32789;BME280;19141;48.980;8.410;2023-07-29T14:53:04;99613.63;;;26.58;51.08
32789;BME280;19141;48.980;8.410;2023-07-29T14:55:29;99616.97;;;26.55;51.78
32789;BME280;19141;48.980;8.410;2023-07-29T14:57:55;99618.63;;;26.51;51.05
32789;BME280;19141;48.980;8.410;2023-07-29T15:00:20;99625.28;;;26.64;51.87
32789;BME280;19141;48.980;8.410;2023-07-29T15:02:45;99618.00;;;26.78;52.16
32789;BME280;19141;48.980;8.410;2023-07-29T15:05:11;99621.16;;;26.85;52.42
32789;BME280;19141;48.980;8.410;2023-07-29T15:07:36;99618.44;;;26.66;51.79
32789;BME280;19141;48.980;8.410;2023-07-29T15:10:02;99616.44;;;26.72;51.87
32789;BME280;19141;48.980;8.410;2023-07-29T15:12:27;99615.84;;;26.56;50.25
32789;BME280;19141;48.980;8.410;2023-07-29T15:14:53;99625.53;;;26.67;51.43
32789;BME280;19141;48.980;8.410;2023-07-29T15:17:18;99614.59;;;26.67;51.23
32789;BME280;19141;48.980;8.410;2023-07-29T15:19:44;99621.63;;;26.73;51.78
32789;BME280;19141;48.980;8.410;2023-07-29T15:22:09;99623.88;;;26.66;51.57
32789;BME280;19141;48.980;8.410;2023-07-29T15:24:34;99621.44;;;26.46;49.95
32789;BME280;19141;48.980;8.410;2023-07-29T15:27:00;99614.94;;;26.42;51.17
32789;BME280;19141;48.980;8.410;2023-07-29T15:29:25;99610.69;;;26.31;51.45
32789;BME280;19141;48.980;8.410;2023-07-29T15:31:50;99607.38;;;26.34;53.01
32789;BME280;19141;48.980;8.410;2023-07-29T15:34:16;99605.44;;;26.34;54.34
32789;BME280;19141;48.980;8.410;2023-07-29T15:36:41;99604.41;;;26.30;53.03
32789;BME280;19141;48.980;8.410;2023-07-29T15:39:07;99602.63;;;26.20;53.87
32789;BME280;19141;48.980;8.410;2023-07-29T15:41:33;99597.97;;;26.21;55.13
32789;BME280;19141;48.980;8.410;2023-07-29T15:43:59;99597.47;;;26.19;54.10
32789;BME280;19141;48.980;8.410;2023-07-29T15:46:25;99596.13;;;26.16;54.69
32789;BME280;19141;48.980;8.410;2023-07-29T15:48:50;99593.09;;;26.18;55.51
32789;BME280;19141;48.980;8.410;2023-07-29T15:51:16;99587.50;;;26.09;55.56
32789;BME280;19141;48.980;8.410;2023-07-29T15:53:41;99593.75;;;26.10;54.73
32789;BME280;19141;48.980;8.410;2023-07-29T15:56:06;99579.81;;;26.11;55.58
32789;BME280;19141;48.980;8.410;2023-07-29T15:58:32;99577.38;;;26.10;55.47
32789;BME280;19141;48.980;8.410;2023-07-29T16:00:57;99576.44;;;26.19;56.86
32789;BME280;19141;48.980;8.410;2023-07-29T16:03:23;99575.97;;;26.12;57.34
32789;BME280;19141;48.980;8.410;2023-07-29T16:05:49;99579.53;;;26.13;55.41
32789;BME280;19141;48.980;8.410;2023-07-29T16:08:14;99573.19;;;26.17;57.27
32789;BME280;19141;48.980;8.410;2023-07-29T16:10:40;99568.25;;;26.19;57.17
32789;BME280;19141;48.980;8.410;2023-07-29T16:13:05;99572.09;;;26.18;57.09
32789;BME280;19141;48.980;8.410;2023-07-29T16:15:31;99567.78;;;26.12;57.58
32789;BME280;19141;48.980;8.410;2023-07-29T16:17:57;99570.13;;;26.00;57.71
32789;BME280;19141;48.980;8.410;2023-07-29T16:20:25;99587.19;;;26.11;57.79
32789;BME280;19141;48.980;8.410;2023-07-29T16:22:50;99582.03;;;26.09;57.83
32789;BME280;19141;48.980;8.410;2023-07-29T16:25:16;99570.72;;;25.97;57.24
32789;BME280;19141;48.980;8.410;2023-07-29T16:27:41;99570.25;;;25.90;58.29
32789;BME280;19141;48.980;8.410;2023-07-29T16:30:07;99570.25;;;25.90;57.93
32789;BME280;19141;48.980;8.410;2023-07-29T16:32:32;99576.28;;;25.87;58.67
32789;BME280;19141;48.980;8.410;2023-07-29T16:34:57;99572.28;;;25.79;59.30
32789;BME280;19141;48.980;8.410;2023-07-29T16:37:23;99562.78;;;25.71;59.57
32789;BME280;19141;48.980;8.410;2023-07-29T16:39:48;99583.25;;;25.74;58.74
32789;BME280;19141;48.980;8.410;2023-07-29T16:42:14;99578.09;;;25.67;58.30
32789;BME280;19141;48.980;8.410;2023-07-29T16:44:40;99579.22;;;25.66;59.58
32789;BME280;19141;48.980;8.410;2023-07-29T16:47:06;99583.38;;;25.59;58.52
32789;BME280;19141;48.980;8.410;2023-07-29T16:49:31;99577.97;;;25.54;59.29
32789;BME280;19141;48.980;8.410;2023-07-29T16:51:58;99584.81;;;25.51;59.48
32789;BME280;19141;48.980;8.410;2023-07-29T16:54:23;99585.94;;;25.50;59.62
32789;BME280;19141;48.980;8.410;2023-07-29T16:56:48;99590.31;;;25.46;59.62
32789;BME280;19141;48.980;8.410;2023-07-29T16:59:14;99581.66;;;25.39;59.84
32789;BME280;19141;48.980;8.410;2023-07-29T17:01:40;99584.34;;;25.44;60.30
32789;BME280;19141;48.980;8.410;2023-07-29T17:04:05;99588.41;;;25.47;59.95
32789;BME280;19141;48.980;8.410;2023-07-29T17:06:31;99587.59;;;25.46;59.96
32789;BME280;19141;48.980;8.410;2023-07-29T17:08:56;99583.28;;;25.40;60.20
32789;BME280;19141;48.980;8.410;2023-07-29T17:11:22;99581.88;;;25.42;60.09
32789;BME280;19141;48.980;8.410;2023-07-29T17:13:47;99588.69;;;25.45;61.16
32789;BME280;19141;48.980;8.410;2023-07-29T17:16:12;99569.47;;;25.31;61.87